Time;durP1;ratioP1;P1;durP2;ratioP2;P2;SDS_P1;SDS_P2;PMS_P1;PMS_P2;Temp;Humidity;BMP_temperature;BMP_pressure;BME280_temperature;BME280_humidity;BME280_pressure;Samples;Min_cycle;Max_cycle;Signal;HPM_P1;HPM_P2
2021/08/03 00:00:39;;;;;;;20.93;15.33;;;;;;;23.75;100.00;99776.14;1612358;86;21104;-61
2021/08/03 00:03:07;;;;;;;18.70;15.00;;;;;;;23.71;100.00;99780.44;1632614;86;21398;-61
2021/08/03 00:05:39;;;;;;;18.63;15.23;;;;;;;23.73;100.00;99784.42;1628332;86;20934;-61
2021/08/03 00:08:14;;;;;;;18.53;15.10;;;;;;;23.60;100.00;99787.73;1629004;86;21080;-61
2021/08/03 00:10:40;;;;;;;16.90;14.27;;;;;;;23.53;100.00;99788.59;1629231;86;21113;-60
2021/08/03 00:13:08;;;;;;;15.33;13.67;;;;;;;23.49;100.00;99791.55;1629416;87;21035;-60
2021/08/03 00:15:34;;;;;;;16.03;14.37;;;;;;;23.52;100.00;99792.30;1628947;86;21153;-61
2021/08/03 00:18:00;;;;;;;16.03;13.53;;;;;;;23.54;100.00;99794.16;1627511;86;21523;-61
2021/08/03 00:20:29;;;;;;;16.77;13.20;;;;;;;23.50;100.00;99792.59;1626022;86;21093;-61
2021/08/03 00:22:59;;;;;;;15.33;13.13;;;;;;;23.48;100.00;99787.28;1628797;86;21205;-63
2021/08/03 00:25:26;;;;;;;17.92;13.80;;;;;;;23.40;100.00;99787.34;1603273;86;21056;-61
2021/08/03 00:27:53;;;;;;;16.37;13.70;;;;;;;23.37;100.00;99783.91;1630262;86;21822;-61
2021/08/03 00:30:19;;;;;;;16.00;13.27;;;;;;;23.37;100.00;99778.59;1629283;86;21637;-61
2021/08/03 00:32:48;;;;;;;17.93;13.77;;;;;;;23.35;100.00;99774.10;1629171;86;22200;-61
2021/08/03 00:35:14;;;;;;;15.60;13.70;;;;;;;23.34;100.00;99769.87;1628970;86;21603;-60
2021/08/03 00:37:41;;;;;;;15.07;13.13;;;;;;;23.33;100.00;99772.78;1628715;86;21127;-61
2021/08/03 00:40:10;;;;;;;19.70;12.70;;;;;;;23.29;100.00;99771.22;1628819;86;21163;-60
2021/08/03 00:42:37;;;;;;;13.70;12.20;;;;;;;23.27;100.00;99764.86;1629717;86;21528;-61
2021/08/03 00:45:05;;;;;;;17.20;13.23;;;;;;;23.26;100.00;99767.78;1629462;86;21068;-61
2021/08/03 00:47:36;;;;;;;14.93;12.23;;;;;;;23.34;100.00;99767.20;1628911;86;21569;-63
2021/08/03 00:50:05;;;;;;;17.10;12.97;;;;;;;23.35;100.00;99776.77;1629138;86;21036;-59
2021/08/03 00:52:32;;;;;;;21.37;13.27;;;;;;;23.37;100.00;99783.91;1630085;86;21787;-61
2021/08/03 00:55:00;;;;;;;15.97;12.17;;;;;;;23.37;100.00;99775.14;1628660;86;20950;-60
2021/08/03 00:57:27;;;;;;;14.60;13.10;;;;;;;23.38;100.00;99774.88;1630185;86;21123;-61
2021/08/03 00:59:56;;;;;;;17.83;13.07;;;;;;;23.38;100.00;99770.11;1629240;86;21064;-61
2021/08/03 01:02:24;;;;;;;15.83;12.87;;;;;;;23.41;100.00;99762.36;1626251;86;22434;-61
2021/08/03 01:04:52;;;;;;;14.90;12.17;;;;;;;23.43;100.00;99771.38;1612317;87;21436;-60
2021/08/03 01:07:36;;;;;;;13.90;12.50;;;;;;;23.45;100.00;99770.03;1641399;85;21024;-61
2021/08/03 01:10:14;;;;;;;15.67;12.87;;;;;;;23.48;100.00;99769.45;1636990;86;21091;-61
2021/08/03 01:13:16;;;;;;;15.93;11.97;;;;;;;23.52;100.00;99781.14;1640731;85;20988;-60
2021/08/03 01:15:58;;;;;;;;;;;;;;;23.55;100.00;99774.45;1639028;85;21527;-61
2021/08/03 01:18:37;;;;;;;14.00;11.50;;;;;;;23.58;100.00;99776.55;1639704;85;39306;-60
2021/08/03 01:21:14;;;;;;;15.93;11.03;;;;;;;23.58;100.00;99781.88;1642302;85;21028;-61
2021/08/03 01:24:09;;;;;;;14.23;11.40;;;;;;;23.65;100.00;99781.55;1640401;85;21080;-61
2021/08/03 01:27:14;;;;;;;14.90;10.80;;;;;;;23.73;100.00;99771.66;1641748;86;20985;-61
2021/08/03 01:29:42;;;;;;;15.63;12.07;;;;;;;23.79;100.00;99777.19;1640941;85;21139;-61
2021/08/03 01:32:10;;;;;;;19.73;12.07;;;;;;;23.89;100.00;99777.60;1639171;85;21653;-61
2021/08/03 01:34:41;;;;;;;14.90;11.67;;;;;;;23.95;100.00;99783.14;1640685;85;20936;-61
2021/08/03 01:37:09;;;;;;;13.20;11.70;;;;;;;23.94;100.00;99784.20;1640847;85;20974;-62
2021/08/03 01:39:38;;;;;;;14.23;12.73;;;;;;;23.93;100.00;99788.73;1641758;85;21624;-61
2021/08/03 01:42:07;;;;;;;15.55;12.65;;;;;;;23.92;100.00;99791.14;1641001;86;21080;-61
2021/08/03 01:44:35;;;;;;;16.30;12.53;;;;;;;23.93;100.00;99790.06;1639984;85;21855;-62
2021/08/03 01:47:04;;;;;;;14.20;12.80;;;;;;;23.90;100.00;99791.16;1639557;85;20946;-60
2021/08/03 01:49:35;;;;;;;13.73;12.43;;;;;;;23.93;100.00;99787.94;1616506;85;21147;-61
2021/08/03 01:52:06;;;;;;;15.68;13.40;;;;;;;23.85;100.00;99790.69;1640781;85;21039;-61
2021/08/03 01:54:33;;;;;;;15.43;13.30;;;;;;;23.82;100.00;99797.89;1639445;85;21628;-61
2021/08/03 01:57:00;;;;;;;17.00;12.63;;;;;;;23.78;100.00;99794.21;1639390;85;21171;-60
2021/08/03 01:59:28;;;;;;;15.90;12.20;;;;;;;23.74;100.00;99796.64;1642103;85;21114;-62
2021/08/03 02:01:54;;;;;;;14.33;12.93;;;;;;;23.73;100.00;99792.41;1643320;85;21039;-60
2021/08/03 02:04:22;;;;;;;14.13;12.63;;;;;;;23.78;100.00;99795.00;1638835;85;21040;-60
2021/08/03 02:06:49;;;;;;;17.53;11.10;;;;;;;23.79;100.00;99802.47;1629138;86;21503;-60
2021/08/03 02:09:18;;;;;;;14.07;12.27;;;;;;;23.80;100.00;99809.38;1629107;86;20961;-61
2021/08/03 02:11:47;;;;;;;15.87;12.47;;;;;;;23.84;100.00;99813.60;1566312;88;21045;-60
2021/08/03 02:14:14;;;;;;;15.87;13.50;;;;;;;23.78;100.00;99821.61;1629787;86;21143;-61
2021/08/03 02:16:43;;;;;;;14.47;12.47;;;;;;;23.74;100.00;99825.92;1619789;87;21001;-62
2021/08/03 02:19:12;;;;;;;16.37;13.90;;;;;;;23.74;100.00;99839.22;1625145;86;21503;-63
2021/08/03 02:21:44;;;;;;;;;;;;;;;23.70;100.00;99846.72;1629202;86;21187;-64
2021/08/03 02:24:13;;;;;;;15.00;13.40;;;;;;;23.62;100.00;99840.65;1629048;86;20108;-62
2021/08/03 02:26:39;;;;;;;19.97;13.87;;;;;;;23.57;100.00;99850.80;1628135;86;21522;-62
2021/08/03 02:29:07;;;;;;;14.23;12.57;;;;;;;23.58;100.00;99838.29;1630130;86;21497;-63
2021/08/03 02:31:42;;;;;;;19.90;11.73;;;;;;;23.60;100.00;99838.79;1629528;86;21086;-63
2021/08/03 02:34:23;;;;;;;14.37;11.43;;;;;;;23.75;100.00;99838.68;1624319;86;21198;-63
2021/08/03 02:36:55;;;;;;;12.63;11.33;;;;;;;23.86;100.00;99828.20;1627115;86;20981;-63
2021/08/03 02:39:22;;;;;;;16.67;12.03;;;;;;;23.93;100.00;99825.20;1626931;86;21029;-63
2021/08/03 02:41:49;;;;;;;11.83;10.60;;;;;;;24.01;100.00;99827.25;1629609;86;21625;-63
2021/08/03 02:44:18;;;;;;;18.10;11.60;;;;;;;24.02;100.00;99834.97;1626184;86;21519;-63
2021/08/03 02:46:46;;;;;;;13.97;10.70;;;;;;;24.19;100.00;99839.05;1629173;86;21149;-63
2021/08/03 02:49:16;;;;;;;13.87;11.83;;;;;;;24.21;100.00;99831.59;1604187;88;21040;-63
2021/08/03 02:51:43;;;;;;;13.87;11.23;;;;;;;24.20;100.00;99825.98;1606604;88;21025;-63
2021/08/03 02:54:24;;;;;;;14.27;11.47;;;;;;;24.21;100.00;99827.05;1606106;87;21032;-62
2021/08/03 02:56:54;;;;;;;12.27;11.07;;;;;;;24.21;100.00;99832.91;1629165;86;21150;-63
2021/08/03 02:59:20;;;;;;;16.83;11.33;;;;;;;24.22;100.00;99829.95;1629856;86;22204;-63
2021/08/03 03:01:47;;;;;;;12.60;11.07;;;;;;;24.21;100.00;99837.70;1679631;82;20995;-61
2021/08/03 03:04:33;;;;;;;14.77;12.63;;;;;;;24.24;100.00;99840.31;1697099;84;20942;-60
2021/08/03 03:07:06;;;;;;;17.43;15.63;;;;;;;24.24;100.00;99841.13;1673892;84;21010;-61
2021/08/03 03:09:34;;;;;;;26.13;17.77;;;;;;;24.31;100.00;99850.09;1692957;84;20875;-62
2021/08/03 03:12:02;;;;;;;23.07;18.40;;;;;;;24.34;100.00;99846.08;1694786;84;21133;-61
2021/08/03 03:14:29;;;;;;;18.73;15.47;;;;;;;24.39;100.00;99848.16;1694570;84;21106;-62
2021/08/03 03:16:57;;;;;;;14.47;11.57;;;;;;;24.48;100.00;99853.12;1698191;84;20982;-62
2021/08/03 03:19:25;;;;;;;15.03;12.23;;;;;;;24.56;100.00;99865.03;1698913;83;20971;-62
2021/08/03 03:21:53;;;;;;;15.13;12.07;;;;;;;24.60;100.00;99869.25;1697604;84;21552;-62
2021/08/03 03:24:20;;;;;;;15.67;11.33;;;;;;;24.70;100.00;99865.10;1676574;83;21187;-62
2021/08/03 03:26:48;;;;;;;14.33;11.30;;;;;;;24.90;100.00;99859.52;1695398;84;21451;-62
2021/08/03 03:29:15;;;;;;;14.33;10.60;;;;;;;25.24;100.00;99857.20;1698326;83;20994;-62
2021/08/03 03:31:43;;;;;;;11.87;10.63;;;;;;;25.74;100.00;99864.13;1697639;83;20944;-62
2021/08/03 03:34:10;;;;;;;14.43;11.97;;;;;;;26.32;100.00;99868.97;1697979;84;20867;-63
2021/08/03 03:36:39;;;;;;;14.40;11.47;;;;;;;26.92;100.00;99855.45;1698459;83;21021;-63
2021/08/03 03:39:08;;;;;;;12.27;11.00;;;;;;;27.56;100.00;99855.87;1698412;84;20963;-63
2021/08/03 03:41:37;;;;;;;13.37;10.47;;;;;;;28.28;100.00;99861.52;1697871;83;20986;-62
2021/08/03 03:44:06;;;;;;;15.03;12.28;;;;;;;29.00;100.00;99855.70;1698180;84;21491;-62
2021/08/03 03:46:47;;;;;;;12.43;10.90;;;;;;;29.69;100.00;99854.83;1697820;84;21030;-63
2021/08/03 03:49:16;;;;;;;16.42;12.07;;;;;;;30.24;100.00;99848.64;1687024;84;21141;-64
2021/08/03 03:51:45;;;;;;;15.20;10.60;;;;;;;30.76;100.00;99856.42;1697754;84;21034;-61
2021/08/03 03:54:27;;;;;;;12.70;11.28;;;;;;;31.06;100.00;99859.58;1697742;84;20990;-63
2021/08/03 03:56:58;;;;;;;13.05;10.95;;;;;;;31.23;100.00;99864.27;1676204;84;21043;-63
2021/08/03 03:59:24;;;;;;;15.38;11.22;;;;;;;31.17;100.00;99860.19;1697624;84;20962;-63
2021/08/03 04:01:58;;;;;;;15.80;10.68;;;;;;;30.92;100.00;99859.31;1696461;84;21115;-62
2021/08/03 04:04:25;;;;;;;11.55;10.45;;;;;;;30.75;100.00;99860.77;1695712;84;21530;-63
2021/08/03 04:06:53;;;;;;;11.40;10.40;;;;;;;30.59;100.00;99866.48;1681478;84;21595;-63
2021/08/03 04:09:23;;;;;;;11.28;10.18;;;;;;;30.46;100.00;99866.41;1695500;84;20978;-64
2021/08/03 04:11:53;;;;;;;12.60;10.55;;;;;;;30.35;100.00;99868.45;1694859;84;21079;-64
2021/08/03 04:14:24;;;;;;;12.47;10.70;;;;;;;30.23;100.00;99872.62;1695692;84;21199;-64
2021/08/03 04:16:55;;;;;;;13.98;9.73;;;;;;;30.22;100.00;99865.64;1694789;83;21099;-66
2021/08/03 04:19:21;;;;;;;12.85;9.35;;;;;;;30.50;100.00;99861.16;1681436;84;21020;-64
2021/08/03 04:21:48;;;;;;;13.48;10.28;;;;;;;31.05;100.00;99867.44;1695860;84;21482;-63
2021/08/03 04:24:17;;;;;;;11.65;9.73;;;;;;;31.64;100.00;99866.66;1695288;84;21022;-64
2021/08/03 04:26:45;;;;;;;16.32;9.80;;;;;;;32.36;100.00;99874.39;1693839;84;21177;-62
2021/08/03 04:29:11;;;;;;;10.05;9.05;;;;;;;33.10;90.93;99869.08;1696176;84;20918;-64
2021/08/03 04:31:38;;;;;;;9.83;8.75;;;;;;;33.79;80.74;99875.19;1695976;84;21520;-63
2021/08/03 04:34:05;;;;;;;11.53;9.05;;;;;;;34.47;70.10;99861.89;1695806;84;20938;-63
2021/08/03 04:36:32;;;;;;;11.68;8.35;;;;;;;35.05;64.57;99862.00;1696070;84;21029;-64
2021/08/03 04:38:59;;;;;;;8.78;7.87;;;;;;;35.66;59.96;99858.28;1693412;84;21153;-64
2021/08/03 04:41:25;;;;;;;8.28;7.15;;;;;;;36.32;55.33;99860.28;1694956;84;21077;-64
2021/08/03 04:43:52;;;;;;;9.13;8.23;;;;;;;36.97;51.04;99860.77;1694529;84;21448;-64
2021/08/03 04:46:19;;;;;;;12.82;7.03;;;;;;;37.65;47.51;99861.47;1695558;83;21107;-62
2021/08/03 04:48:46;;;;;;;9.83;6.70;;;;;;;38.10;43.47;99871.75;1695600;84;20911;-62
2021/08/03 04:51:13;;;;;;;13.35;6.95;;;;;;;38.44;40.78;99864.80;1694908;84;21103;-62
2021/08/03 04:53:40;;;;;;;8.18;6.15;;;;;;;38.56;40.01;99871.27;1695324;84;21025;-62
2021/08/03 04:56:07;;;;;;;7.72;6.22;;;;;;;38.72;39.47;99869.61;1694531;84;22306;-61
2021/08/03 04:58:33;;;;;;;9.78;6.75;;;;;;;38.95;37.80;99873.42;1681402;83;21446;-63
2021/08/03 05:01:00;;;;;;;7.92;6.65;;;;;;;39.12;37.67;99878.13;1692319;84;20974;-62
2021/08/03 05:03:27;;;;;;;7.95;7.00;;;;;;;39.37;36.50;99874.71;1706155;83;22641;-62
2021/08/03 05:05:54;;;;;;;7.03;6.33;;;;;;;39.53;35.98;99875.70;1705304;84;21063;-62
2021/08/03 05:08:22;;;;;;;5.97;5.40;;;;;;;39.63;34.96;99870.25;1705412;83;20922;-63
2021/08/03 05:10:48;;;;;;;8.23;5.85;;;;;;;39.75;33.63;99873.20;1704772;83;21042;-63
2021/08/03 05:13:15;;;;;;;7.08;5.42;;;;;;;39.78;33.40;99879.25;1705233;84;21453;-63
2021/08/03 05:15:41;;;;;;;6.92;5.30;;;;;;;39.84;33.08;99870.06;1705255;84;21141;-62
2021/08/03 05:18:09;;;;;;;7.22;5.70;;;;;;;39.78;33.08;99869.70;1705119;83;20986;-61
2021/08/03 05:20:35;;;;;;;6.40;5.35;;;;;;;39.86;33.04;99870.47;1705436;84;21079;-63
2021/08/03 05:23:02;;;;;;;5.50;4.90;;;;;;;40.03;32.51;99866.15;1705159;84;21452;-63
2021/08/03 05:25:29;;;;;;;11.60;5.75;;;;;;;40.16;32.06;99865.97;1705329;84;21467;-62
2021/08/03 05:27:55;;;;;;;7.67;6.05;;;;;;;40.29;31.65;99864.37;1704916;84;21121;-62
2021/08/03 05:30:22;;;;;;;10.55;5.45;;;;;;;40.50;31.61;99862.73;1705381;84;21053;-63
2021/08/03 05:32:48;;;;;;;6.58;4.70;;;;;;;40.67;31.29;99862.52;1705306;84;20939;-63
2021/08/03 05:35:15;;;;;;;6.87;5.50;;;;;;;40.89;30.97;99863.20;1705625;84;21425;-63
2021/08/03 05:37:41;;;;;;;7.85;5.80;;;;;;;41.03;30.70;99855.73;1705057;84;21484;-62
2021/08/03 05:40:12;;;;;;;7.72;5.58;;;;;;;41.19;30.61;99859.92;1704652;84;21144;-63
2021/08/03 05:42:38;;;;;;;6.00;5.17;;;;;;;41.49;29.92;99866.19;1705314;84;21059;-62
2021/08/03 05:45:08;;;;;;;7.77;5.20;;;;;;;41.72;29.12;99865.02;1705861;84;21024;-62
2021/08/03 05:47:35;;;;;;;5.70;4.87;;;;;;;41.88;28.91;99868.61;1705147;84;21461;-62
2021/08/03 05:50:05;;;;;;;6.17;5.15;;;;;;;42.07;28.09;99865.88;1705106;84;21001;-62
2021/08/03 05:52:32;;;;;;;7.80;5.45;;;;;;;42.08;27.64;99861.95;1705730;84;21129;-62
2021/08/03 05:55:00;;;;;;;5.95;5.35;;;;;;;41.99;27.29;99870.66;1706112;84;20981;-62
2021/08/03 05:57:30;;;;;;;7.10;6.12;;;;;;;41.62;28.21;99868.61;1705054;84;21005;-62
2021/08/03 05:59:55;;;;;;;5.28;4.78;;;;;;;41.86;27.89;99870.96;1705174;84;21688;-62
2021/08/03 06:02:22;;;;;;;6.28;4.75;;;;;;;42.20;27.16;99871.01;1701497;84;21081;-63
2021/08/03 06:04:48;;;;;;;6.22;5.20;;;;;;;42.44;26.64;99873.34;1695629;84;21131;-63
2021/08/03 06:07:15;;;;;;;7.45;5.45;;;;;;;42.29;26.73;99876.05;1695852;84;20883;-62
2021/08/03 06:09:42;;;;;;;5.40;4.90;;;;;;;41.89;27.47;99877.00;1694920;84;20966;-61
2021/08/03 06:12:11;;;;;;;6.80;4.50;;;;;;;41.24;27.86;99878.05;1694211;84;21132;-61
2021/08/03 06:14:44;;;;;;;5.15;4.55;;;;;;;40.48;28.56;99876.02;1692916;84;21398;-62
2021/08/03 06:17:14;;;;;;;6.80;4.78;;;;;;;39.77;29.56;99881.76;1695934;84;21827;-62
2021/08/03 06:19:45;;;;;;;5.58;4.50;;;;;;;39.04;30.26;99882.00;1695433;84;20914;-61
2021/08/03 06:22:12;;;;;;;5.65;4.50;;;;;;;38.41;31.50;99884.61;1695519;84;20978;-62
2021/08/03 06:24:39;;;;;;;8.28;5.17;;;;;;;37.81;32.35;99891.16;1695331;84;21058;-62
2021/08/03 06:27:12;;;;;;;6.42;4.42;;;;;;;37.28;33.74;99894.13;1695116;84;21037;-61
2021/08/03 06:29:38;;;;;;;6.35;4.50;;;;;;;36.86;34.66;99893.82;1695667;84;21109;-61
2021/08/03 06:32:07;;;;;;;6.10;5.20;;;;;;;36.65;35.81;99894.90;1681105;84;20915;-61
2021/08/03 06:34:34;;;;;;;6.72;5.08;;;;;;;36.85;36.48;99894.95;1696571;84;21069;-61
2021/08/03 06:37:01;;;;;;;7.37;4.90;;;;;;;37.18;35.79;99894.79;1684714;84;21057;-62
2021/08/03 06:39:28;;;;;;;15.45;13.55;;;;;;;37.55;35.32;99894.04;1696461;84;21583;-62
2021/08/03 06:41:59;;;;;;;9.00;8.08;;;;;;;38.00;34.30;99890.17;1695508;84;21107;-61
2021/08/03 06:44:37;;;;;;;10.08;8.98;;;;;;;38.26;33.91;99887.80;1695150;84;21072;-62
2021/08/03 06:47:03;;;;;;;7.58;5.28;;;;;;;38.67;33.07;99893.11;1695270;83;21507;-62
2021/08/03 06:49:32;;;;;;;13.70;12.33;;;;;;;38.93;32.52;99888.00;1695186;84;20994;-61
2021/08/03 06:51:59;;;;;;;7.45;5.37;;;;;;;39.16;32.59;99892.54;1695354;84;21828;-62
2021/08/03 06:54:28;;;;;;;10.38;4.83;;;;;;;39.40;32.23;99900.63;1696144;84;20946;-62
2021/08/03 06:57:08;;;;;;;5.78;4.40;;;;;;;39.90;32.28;99906.73;1695762;84;21009;-61
2021/08/03 06:59:34;;;;;;;7.00;4.87;;;;;;;40.29;31.22;99897.73;1695474;84;21502;-61
2021/08/03 07:02:08;;;;;;;6.28;4.62;;;;;;;40.28;30.88;99907.10;1681706;84;21664;-62
2021/08/03 07:04:58;;;;;;;7.67;5.47;;;;;;;40.24;30.81;99904.97;1671090;85;21035;-62
2021/08/03 07:07:26;;;;;;;12.98;11.68;;;;;;;40.19;31.24;99908.08;1671032;85;21139;-61
2021/08/03 07:09:55;;;;;;;27.50;8.60;;;;;;;39.90;31.32;99912.19;1670378;85;21658;-62
2021/08/03 07:12:22;;;;;;;8.55;6.40;;;;;;;39.44;32.51;99906.64;1670919;85;21533;-62
2021/08/03 07:14:50;;;;;;;6.30;5.05;;;;;;;39.08;32.62;99906.55;1670276;85;21079;-61
2021/08/03 07:17:16;;;;;;;6.22;4.62;;;;;;;38.98;33.22;99905.33;1670712;85;20920;-62
2021/08/03 07:19:44;;;;;;;7.00;4.20;;;;;;;39.22;33.58;99901.73;1670367;85;21128;-62
2021/08/03 07:22:16;;;;;;;5.30;4.47;;;;;;;39.60;32.77;99904.34;1671323;85;21308;-62
2021/08/03 07:24:49;;;;;;;6.40;4.60;;;;;;;39.83;32.71;99904.77;1671093;85;21034;-61
2021/08/03 07:27:15;;;;;;;7.35;5.12;;;;;;;39.80;32.43;99897.95;1671348;85;21517;-61
2021/08/03 07:29:42;;;;;;;7.08;5.05;;;;;;;39.74;32.51;99901.66;1669785;85;21121;-62
2021/08/03 07:32:09;;;;;;;5.65;4.85;;;;;;;39.61;33.37;99903.17;1671235;85;21196;-62
2021/08/03 07:34:38;;;;;;;5.40;4.40;;;;;;;39.68;32.70;99900.48;1671185;85;21031;-62
2021/08/03 07:37:05;;;;;;;7.03;5.40;;;;;;;39.73;32.82;99902.81;1671114;85;21040;-61
2021/08/03 07:39:33;;;;;;;10.78;9.70;;;;;;;39.96;31.75;99906.51;1670811;85;21336;-61
2021/08/03 07:42:00;;;;;;;4.92;4.05;;;;;;;40.31;31.24;99901.63;1650485;85;21380;-62
2021/08/03 07:44:27;;;;;;;5.83;4.35;;;;;;;40.69;30.17;99903.30;1671620;85;21066;-62
2021/08/03 07:46:53;;;;;;;5.53;4.47;;;;;;;41.15;29.38;99896.09;1671226;85;21062;-62
2021/08/03 07:49:20;;;;;;;6.20;4.10;;;;;;;41.46;28.75;99893.75;1670517;85;21040;-61
2021/08/03 07:51:47;;;;;;;7.75;3.95;;;;;;;41.65;28.23;99896.55;1670722;85;21469;-62
2021/08/03 07:54:14;;;;;;;12.85;4.60;;;;;;;41.86;28.12;99892.86;1671550;85;21035;-62
2021/08/03 07:56:40;;;;;;;5.85;4.22;;;;;;;42.21;28.29;99895.87;1671245;85;21480;-62
2021/08/03 07:59:07;;;;;;;5.75;4.80;;;;;;;42.51;28.03;99899.88;1670801;85;21011;-62
2021/08/03 08:01:33;;;;;;;12.50;10.30;;;;;;;42.74;27.46;99897.88;1671098;85;21071;-61
2021/08/03 08:04:00;;;;;;;7.33;6.00;;;;;;;42.93;27.43;99905.45;1691451;83;21065;-61
2021/08/03 08:06:27;;;;;;;10.05;5.12;;;;;;;43.07;26.81;99903.72;1695489;84;21153;-61
2021/08/03 08:08:55;;;;;;;14.93;13.62;;;;;;;43.14;26.81;99898.13;1695532;84;22063;-62
2021/08/03 08:11:21;;;;;;;12.18;10.30;;;;;;;43.13;26.48;99907.56;1695270;84;21535;-62
2021/08/03 08:13:48;;;;;;;12.07;10.93;;;;;;;43.02;25.98;99900.82;1695047;84;22381;-60
2021/08/03 08:16:17;;;;;;;9.10;8.20;;;;;;;42.73;25.80;99895.70;1695578;83;20938;-62
2021/08/03 08:18:44;;;;;;;7.45;6.10;;;;;;;42.59;26.55;99895.87;1695921;84;21088;-62
2021/08/03 08:21:10;;;;;;;6.33;5.20;;;;;;;42.62;26.40;99890.94;1695669;84;21129;-61
2021/08/03 08:23:37;;;;;;;6.53;4.90;;;;;;;42.62;26.50;99892.31;1694612;84;21460;-62
2021/08/03 08:26:04;;;;;;;10.32;5.45;;;;;;;42.63;26.45;99901.31;1694965;84;21113;-62
2021/08/03 08:28:30;;;;;;;9.38;7.90;;;;;;;42.69;26.12;99901.83;1695575;84;20946;-62
2021/08/03 08:30:59;;;;;;;7.83;4.83;;;;;;;42.66;26.50;99903.23;1694960;84;20978;-61
2021/08/03 08:33:25;;;;;;;6.80;4.40;;;;;;;42.58;26.72;99903.88;1695540;84;21149;-62
2021/08/03 08:35:53;;;;;;;12.20;5.50;;;;;;;42.39;26.39;99907.24;1695210;83;21009;-61
2021/08/03 08:38:20;;;;;;;12.53;9.93;;;;;;;42.07;27.11;99901.48;1695096;84;21514;-61
2021/08/03 08:40:46;;;;;;;9.13;6.37;;;;;;;41.86;27.22;99907.14;1695105;84;21434;-62
2021/08/03 08:43:16;;;;;;;8.28;6.75;;;;;;;41.20;27.28;99903.27;1695174;84;21484;-62
2021/08/03 08:45:43;;;;;;;7.92;4.92;;;;;;;40.74;28.24;99898.02;1695184;84;21151;-61
2021/08/03 08:48:13;;;;;;;15.08;4.60;;;;;;;40.33;28.47;99900.64;1694924;84;20950;-62
2021/08/03 08:50:40;;;;;;;4.80;3.90;;;;;;;40.04;28.69;99908.65;1695154;83;21077;-62
2021/08/03 08:53:07;;;;;;;6.80;4.05;;;;;;;39.70;29.23;99911.77;1695903;84;20999;-62
2021/08/03 08:55:35;;;;;;;11.05;4.30;;;;;;;39.38;30.01;99914.44;1695205;84;21100;-62
2021/08/03 08:58:02;;;;;;;6.95;3.92;;;;;;;39.24;30.05;99916.55;1684269;84;22274;-62
2021/08/03 09:00:29;;;;;;;14.40;5.22;;;;;;;39.03;30.22;99921.92;1694820;84;21843;-62
2021/08/03 09:02:56;;;;;;;7.83;4.55;;;;;;;38.62;31.66;99921.50;1695642;84;21054;-61
2021/08/03 09:05:33;;;;;;;7.22;4.62;;;;;;;37.82;33.90;99925.36;1695691;84;21097;-62
2021/08/03 09:08:02;;;;;;;8.00;4.33;;;;;;;36.82;36.31;99922.07;1694427;84;21037;-62
2021/08/03 09:10:49;;;;;;;7.20;4.28;;;;;;;35.79;38.78;99909.24;1695548;84;21438;-62
2021/08/03 09:13:18;;;;;;;6.50;4.95;;;;;;;35.21;40.75;99905.27;1688023;84;21006;-62
2021/08/03 09:15:48;;;;;;;8.23;4.87;;;;;;;34.68;42.47;99910.91;1694854;84;21006;-62
2021/08/03 09:18:38;;;;;;;6.92;4.42;;;;;;;34.29;44.51;99909.44;1694864;83;20887;-61
2021/08/03 09:21:05;;;;;;;5.90;4.50;;;;;;;34.06;46.72;99910.63;1695472;84;21081;-61
2021/08/03 09:23:44;;;;;;;5.75;4.03;;;;;;;33.75;49.50;99908.64;1695553;83;21112;-62
2021/08/03 09:26:11;;;;;;;6.33;4.53;;;;;;;33.59;51.57;99909.41;1695276;84;21328;-62
2021/08/03 09:29:07;;;;;;;10.53;4.75;;;;;;;33.72;53.36;99907.98;1695181;84;21033;-62
2021/08/03 09:31:35;;;;;;;7.92;4.12;;;;;;;34.03;54.14;99912.10;1693961;83;21050;-61
2021/08/03 09:34:13;;;;;;;10.35;4.92;;;;;;;34.67;51.31;99920.17;1684963;84;21427;-62
2021/08/03 09:36:57;;;;;;;5.25;4.40;;;;;;;35.06;50.33;99917.73;1694863;84;21118;-61
2021/08/03 09:39:45;;;;;;;8.30;4.35;;;;;;;35.36;46.72;99921.80;1695067;84;20891;-62
2021/08/03 09:42:27;;;;;;;7.87;4.20;;;;;;;35.28;45.74;99927.08;1695528;84;20926;-62
2021/08/03 09:45:02;;;;;;;5.47;4.25;;;;;;;35.18;45.95;99932.28;1694749;84;21068;-61
2021/08/03 09:47:30;;;;;;;6.03;3.95;;;;;;;34.94;47.78;99931.97;1695698;84;21049;-62
2021/08/03 09:49:59;;;;;;;5.58;3.90;;;;;;;34.85;50.57;99930.25;1694783;84;22374;-61
2021/08/03 09:52:31;;;;;;;6.72;4.25;;;;;;;34.78;48.10;99936.09;1695508;84;21021;-61
2021/08/03 09:55:12;;;;;;;6.37;4.20;;;;;;;34.59;47.02;99936.83;1695155;84;22199;-62
2021/08/03 09:57:40;;;;;;;7.30;4.53;;;;;;;34.33;48.39;99940.84;1694462;84;21034;-62
2021/08/03 10:00:36;;;;;;;7.87;4.67;;;;;;;34.10;50.93;99942.61;1695591;83;21330;-60
2021/08/03 10:03:04;;;;;;;6.58;4.60;;;;;;;33.84;53.50;99945.21;1684630;83;21160;-60
2021/08/03 10:05:32;;;;;;;7.65;4.65;;;;;;;33.46;61.25;99943.58;1695541;84;20982;-62
2021/08/03 10:07:59;;;;;;;10.25;4.50;;;;;;;33.08;68.95;99932.12;1694362;84;20982;-61
2021/08/03 10:10:25;;;;;;;9.85;5.15;;;;;;;32.79;77.51;99925.63;1687816;84;21554;-61
2021/08/03 10:12:54;;;;;;;8.43;5.28;;;;;;;32.53;100.00;99914.63;1694850;84;21102;-62
2021/08/03 10:15:22;;;;;;;8.20;4.30;;;;;;;32.17;100.00;99905.41;1695083;84;21001;-61
2021/08/03 10:17:50;;;;;;;6.17;4.50;;;;;;;31.77;100.00;99909.80;1695501;84;20979;-60
2021/08/03 10:20:17;;;;;;;6.47;4.42;;;;;;;31.41;100.00;99911.28;1695269;84;21560;-63
2021/08/03 10:22:48;;;;;;;6.83;4.72;;;;;;;31.18;100.00;99910.25;1695185;84;22236;-61
2021/08/03 10:25:15;;;;;;;4.78;3.95;;;;;;;31.23;100.00;99911.95;1689820;83;21480;-63
2021/08/03 10:27:50;;;;;;;6.15;4.40;;;;;;;31.35;100.00;99905.86;1694703;84;21131;-63
2021/08/03 10:30:34;;;;;;;5.80;4.42;;;;;;;31.48;100.00;99907.46;1695477;84;20978;-63
2021/08/03 10:33:06;;;;;;;5.47;4.35;;;;;;;31.58;100.00;99909.75;1688291;84;21528;-63
2021/08/03 10:35:49;;;;;;;6.95;4.10;;;;;;;31.65;99.73;99912.69;1695749;83;21547;-63
2021/08/03 10:38:21;;;;;;;6.40;3.95;;;;;;;31.89;91.62;99912.55;1695426;84;21112;-61
2021/08/03 10:41:00;;;;;;;6.78;4.45;;;;;;;31.89;91.62;99912.55;1695446;84;22131;-62
2021/08/03 10:43:37;;;;;;;8.05;4.53;;;;;;;32.43;78.41;99913.76;1695092;84;20995;-60
2021/08/03 10:46:15;;;;;;;7.37;4.33;;;;;;;32.96;71.20;99924.59;1695076;84;21057;-62
2021/08/03 10:48:43;;;;;;;5.28;4.17;;;;;;;33.53;70.25;99927.59;1691235;84;20947;-62
2021/08/03 10:51:23;;;;;;;5.70;4.30;;;;;;;34.19;60.50;99926.97;1695331;83;21081;-62
2021/08/03 10:54:16;;;;;;;5.75;4.25;;;;;;;34.76;55.90;99916.69;1694757;84;22395;-62
2021/08/03 10:57:00;;;;;;;5.45;4.22;;;;;;;35.33;51.26;99920.58;1694728;84;20963;-62
2021/08/03 10:59:34;;;;;;;7.87;4.90;;;;;;;35.70;45.77;99910.64;1695617;84;21048;-61
2021/08/03 11:02:05;;;;;;;5.60;3.58;;;;;;;35.84;44.65;99905.47;1685108;84;21053;-64
2021/08/03 11:04:54;;;;;;;;;;;;;;;35.97;44.73;99901.41;1704413;84;21080;-62
2021/08/03 11:07:32;;;;;;;6.17;4.15;;;;;;;36.09;41.10;99903.75;1705710;84;21723;-61
2021/08/03 11:10:21;;;;;;;6.10;5.03;;;;;;;36.03;41.31;99898.64;1705769;84;21143;-61
2021/08/03 11:12:50;;;;;;;7.20;4.87;;;;;;;36.00;41.35;99902.65;1705381;83;21040;-62
2021/08/03 11:15:26;;;;;;;6.62;4.37;;;;;;;35.95;41.32;99915.11;1705176;84;20894;-60
2021/08/03 11:18:08;;;;;;;8.25;4.28;;;;;;;35.94;41.66;99906.77;1705368;83;21053;-61
2021/08/03 11:20:41;;;;;;;5.28;3.87;;;;;;;36.04;41.88;99909.69;1705769;83;21818;-64
2021/08/03 11:23:13;;;;;;;6.45;4.55;;;;;;;36.23;42.29;99906.11;1705271;84;21436;-63
2021/08/03 11:25:41;;;;;;;5.03;4.47;;;;;;;36.44;42.63;99900.20;1704908;84;20922;-63
2021/08/03 11:28:12;;;;;;;9.18;4.45;;;;;;;36.48;41.12;99894.30;1705341;84;21060;-62
2021/08/03 11:30:40;;;;;;;5.33;4.40;;;;;;;36.36;42.51;99889.03;1705379;84;20998;-62
2021/08/03 11:33:07;;;;;;;11.73;5.35;;;;;;;36.38;43.38;99885.39;1704856;84;21150;-62
2021/08/03 11:35:34;;;;;;;6.92;4.37;;;;;;;36.62;42.32;99884.77;1705061;84;21358;-62
2021/08/03 11:38:11;;;;;;;8.40;4.70;;;;;;;36.85;42.21;99885.44;1697193;84;20943;-61